sensor_id;sensor_type;location;lat;lon;timestamp;P1;durP1;ratioP1;P2;durP2;ratioP2
3297;SDS011;1661;53.572;10.174;2022-09-09T00:00:11;26.27;;;22.10;;
3297;SDS011;1661;53.572;10.174;2022-09-09T00:02:39;46.60;;;31.37;;
3297;SDS011;1661;53.572;10.174;2022-09-09T00:05:13;58.67;;;27.63;;
3297;SDS011;1661;53.572;10.174;2022-09-09T00:07:50;40.90;;;25.37;;
3297;SDS011;1661;53.572;10.174;2022-09-09T00:10:20;58.00;;;27.77;;
3297;SDS011;1661;53.572;10.174;2022-09-09T00:12:53;46.83;;;28.23;;
3297;SDS011;1661;53.572;10.174;2022-09-09T00:15:27;47.33;;;27.03;;
3297;SDS011;1661;53.572;10.174;2022-09-09T00:18:01;53.63;;;28.50;;
3297;SDS011;1661;53.572;10.174;2022-09-09T00:20:37;35.90;;;25.40;;
3297;SDS011;1661;53.572;10.174;2022-09-09T00:23:11;38.70;;;25.40;;
3297;SDS011;1661;53.572;10.174;2022-09-09T00:25:45;25.00;;;22.03;;
3297;SDS011;1661;53.572;10.174;2022-09-09T00:28:17;32.30;;;24.90;;
3297;SDS011;1661;53.572;10.174;2022-09-09T00:30:45;81.83;;;27.60;;
3297;SDS011;1661;53.572;10.174;2022-09-09T00:33:14;35.00;;;24.27;;
3297;SDS011;1661;53.572;10.174;2022-09-09T00:35:44;27.57;;;20.30;;
3297;SDS011;1661;53.572;10.174;2022-09-09T00:38:15;62.10;;;27.00;;
3297;SDS011;1661;53.572;10.174;2022-09-09T00:40:50;44.37;;;25.67;;
3297;SDS011;1661;53.572;10.174;2022-09-09T00:43:21;28.67;;;23.77;;
3297;SDS011;1661;53.572;10.174;2022-09-09T00:45:59;31.47;;;23.87;;
3297;SDS011;1661;53.572;10.174;2022-09-09T00:48:38;21.37;;;18.17;;
3297;SDS011;1661;53.572;10.174;2022-09-09T00:51:13;28.23;;;23.33;;
3297;SDS011;1661;53.572;10.174;2022-09-09T00:53:55;40.07;;;25.27;;
3297;SDS011;1661;53.572;10.174;2022-09-09T00:56:34;36.63;;;25.53;;
3297;SDS011;1661;53.572;10.174;2022-09-09T00:59:16;35.67;;;25.50;;
3297;SDS011;1661;53.572;10.174;2022-09-09T01:01:51;41.20;;;27.70;;
3297;SDS011;1661;53.572;10.174;2022-09-09T01:04:20;37.70;;;24.97;;
3297;SDS011;1661;53.572;10.174;2022-09-09T01:06:57;43.60;;;27.60;;
3297;SDS011;1661;53.572;10.174;2022-09-09T01:09:37;30.10;;;23.83;;
3297;SDS011;1661;53.572;10.174;2022-09-09T01:12:12;55.60;;;28.47;;
3297;SDS011;1661;53.572;10.174;2022-09-09T01:14:42;31.40;;;23.87;;
3297;SDS011;1661;53.572;10.174;2022-09-09T01:17:14;43.73;;;25.47;;
3297;SDS011;1661;53.572;10.174;2022-09-09T01:19:47;65.33;;;28.67;;
3297;SDS011;1661;53.572;10.174;2022-09-09T01:22:26;43.83;;;28.00;;
3297;SDS011;1661;53.572;10.174;2022-09-09T01:25:11;44.00;;;31.00;;
3297;SDS011;1661;53.572;10.174;2022-09-09T01:27:56;45.57;;;27.13;;
3297;SDS011;1661;53.572;10.174;2022-09-09T01:30:26;60.47;;;30.20;;
3297;SDS011;1661;53.572;10.174;2022-09-09T01:32:55;45.17;;;26.17;;
3297;SDS011;1661;53.572;10.174;2022-09-09T01:35:31;33.20;;;25.60;;
3297;SDS011;1661;53.572;10.174;2022-09-09T01:38:04;25.20;;;20.20;;
3297;SDS011;1661;53.572;10.174;2022-09-09T01:40:31;38.03;;;27.40;;
3297;SDS011;1661;53.572;10.174;2022-09-09T01:42:59;28.30;;;21.90;;
3297;SDS011;1661;53.572;10.174;2022-09-09T01:45:26;33.73;;;27.07;;
3297;SDS011;1661;53.572;10.174;2022-09-09T01:47:53;36.40;;;26.97;;
3297;SDS011;1661;53.572;10.174;2022-09-09T01:50:20;36.90;;;26.87;;
3297;SDS011;1661;53.572;10.174;2022-09-09T01:52:48;45.20;;;28.60;;
3297;SDS011;1661;53.572;10.174;2022-09-09T01:55:22;39.60;;;26.73;;
3297;SDS011;1661;53.572;10.174;2022-09-09T01:57:58;35.40;;;26.20;;
3297;SDS011;1661;53.572;10.174;2022-09-09T02:00:38;31.67;;;23.87;;
3297;SDS011;1661;53.572;10.174;2022-09-09T02:03:13;34.90;;;26.60;;
3297;SDS011;1661;53.572;10.174;2022-09-09T02:05:49;35.70;;;28.30;;
3297;SDS011;1661;53.572;10.174;2022-09-09T02:08:23;48.00;;;27.27;;
3297;SDS011;1661;53.572;10.174;2022-09-09T02:11:06;34.63;;;27.50;;
3297;SDS011;1661;53.572;10.174;2022-09-09T02:13:39;29.87;;;25.23;;
3297;SDS011;1661;53.572;10.174;2022-09-09T02:16:07;40.30;;;24.77;;
3297;SDS011;1661;53.572;10.174;2022-09-09T02:18:39;42.23;;;29.00;;
3297;SDS011;1661;53.572;10.174;2022-09-09T02:21:08;48.43;;;27.00;;
3297;SDS011;1661;53.572;10.174;2022-09-09T02:23:38;32.57;;;24.67;;
3297;SDS011;1661;53.572;10.174;2022-09-09T02:26:08;34.20;;;26.97;;
3297;SDS011;1661;53.572;10.174;2022-09-09T02:28:39;40.40;;;27.97;;
3297;SDS011;1661;53.572;10.174;2022-09-09T02:31:07;36.87;;;27.27;;
3297;SDS011;1661;53.572;10.174;2022-09-09T02:33:35;26.97;;;21.77;;
3297;SDS011;1661;53.572;10.174;2022-09-09T02:36:05;35.73;;;24.57;;
3297;SDS011;1661;53.572;10.174;2022-09-09T02:38:37;29.43;;;20.90;;
3297;SDS011;1661;53.572;10.174;2022-09-09T02:41:08;41.87;;;26.17;;
3297;SDS011;1661;53.572;10.174;2022-09-09T02:43:35;31.10;;;24.10;;
3297;SDS011;1661;53.572;10.174;2022-09-09T02:46:06;41.77;;;26.33;;
3297;SDS011;1661;53.572;10.174;2022-09-09T02:48:42;35.73;;;25.20;;
3297;SDS011;1661;53.572;10.174;2022-09-09T02:51:18;60.30;;;27.80;;
3297;SDS011;1661;53.572;10.174;2022-09-09T02:53:52;33.10;;;26.67;;
3297;SDS011;1661;53.572;10.174;2022-09-09T02:56:29;35.03;;;25.97;;
3297;SDS011;1661;53.572;10.174;2022-09-09T02:59:02;37.30;;;26.93;;
3297;SDS011;1661;53.572;10.174;2022-09-09T03:01:31;55.43;;;28.20;;
3297;SDS011;1661;53.572;10.174;2022-09-09T03:03:57;47.60;;;28.90;;
3297;SDS011;1661;53.572;10.174;2022-09-09T03:06:24;23.40;;;19.90;;
3297;SDS011;1661;53.572;10.174;2022-09-09T03:08:52;29.90;;;25.40;;
3297;SDS011;1661;53.572;10.174;2022-09-09T03:11:18;33.80;;;25.77;;
3297;SDS011;1661;53.572;10.174;2022-09-09T03:13:45;43.43;;;29.73;;
3297;SDS011;1661;53.572;10.174;2022-09-09T03:16:13;30.67;;;23.40;;
3297;SDS011;1661;53.572;10.174;2022-09-09T03:18:42;41.23;;;28.70;;
3297;SDS011;1661;53.572;10.174;2022-09-09T03:21:10;33.20;;;26.27;;
3297;SDS011;1661;53.572;10.174;2022-09-09T03:23:36;35.83;;;25.43;;
3297;SDS011;1661;53.572;10.174;2022-09-09T03:26:03;34.87;;;26.70;;
3297;SDS011;1661;53.572;10.174;2022-09-09T03:28:30;38.43;;;27.47;;
3297;SDS011;1661;53.572;10.174;2022-09-09T03:30:59;36.90;;;27.47;;
3297;SDS011;1661;53.572;10.174;2022-09-09T03:33:26;33.43;;;25.37;;
3297;SDS011;1661;53.572;10.174;2022-09-09T03:35:55;37.40;;;25.03;;
3297;SDS011;1661;53.572;10.174;2022-09-09T03:38:22;35.43;;;25.97;;
3297;SDS011;1661;53.572;10.174;2022-09-09T03:40:50;50.37;;;29.93;;
3297;SDS011;1661;53.572;10.174;2022-09-09T03:43:20;40.93;;;26.17;;
3297;SDS011;1661;53.572;10.174;2022-09-09T03:45:47;35.50;;;26.20;;
3297;SDS011;1661;53.572;10.174;2022-09-09T03:48:15;43.00;;;24.97;;
3297;SDS011;1661;53.572;10.174;2022-09-09T03:50:45;40.50;;;26.63;;
3297;SDS011;1661;53.572;10.174;2022-09-09T03:53:15;44.10;;;28.07;;
3297;SDS011;1661;53.572;10.174;2022-09-09T03:55:44;56.60;;;30.80;;
3297;SDS011;1661;53.572;10.174;2022-09-09T03:58:11;39.07;;;27.43;;
3297;SDS011;1661;53.572;10.174;2022-09-09T04:00:38;32.00;;;25.70;;
3297;SDS011;1661;53.572;10.174;2022-09-09T04:03:07;35.40;;;26.43;;
3297;SDS011;1661;53.572;10.174;2022-09-09T04:05:34;30.53;;;23.50;;
3297;SDS011;1661;53.572;10.174;2022-09-09T04:08:04;35.33;;;24.87;;
3297;SDS011;1661;53.572;10.174;2022-09-09T04:10:32;52.67;;;30.30;;
3297;SDS011;1661;53.572;10.174;2022-09-09T04:13:02;32.20;;;24.17;;
3297;SDS011;1661;53.572;10.174;2022-09-09T04:15:28;33.20;;;23.93;;
3297;SDS011;1661;53.572;10.174;2022-09-09T04:17:55;40.03;;;26.17;;
3297;SDS011;1661;53.572;10.174;2022-09-09T04:20:22;35.00;;;26.27;;
3297;SDS011;1661;53.572;10.174;2022-09-09T04:22:49;33.50;;;26.37;;
3297;SDS011;1661;53.572;10.174;2022-09-09T04:25:15;24.90;;;21.47;;
3297;SDS011;1661;53.572;10.174;2022-09-09T04:27:43;30.83;;;23.60;;
3297;SDS011;1661;53.572;10.174;2022-09-09T04:30:10;39.97;;;27.10;;
3297;SDS011;1661;53.572;10.174;2022-09-09T04:32:38;40.13;;;28.70;;
3297;SDS011;1661;53.572;10.174;2022-09-09T04:35:05;26.93;;;22.10;;
3297;SDS011;1661;53.572;10.174;2022-09-09T04:37:32;43.63;;;27.13;;
3297;SDS011;1661;53.572;10.174;2022-09-09T04:39:58;38.40;;;28.33;;
3297;SDS011;1661;53.572;10.174;2022-09-09T04:42:26;35.37;;;25.17;;
3297;SDS011;1661;53.572;10.174;2022-09-09T04:44:54;42.00;;;29.63;;
3297;SDS011;1661;53.572;10.174;2022-09-09T04:47:21;40.50;;;26.10;;
3297;SDS011;1661;53.572;10.174;2022-09-09T04:49:48;25.13;;;21.23;;
3297;SDS011;1661;53.572;10.174;2022-09-09T04:52:15;34.00;;;26.97;;
3297;SDS011;1661;53.572;10.174;2022-09-09T04:54:42;39.50;;;26.10;;
3297;SDS011;1661;53.572;10.174;2022-09-09T04:57:10;27.10;;;22.13;;
3297;SDS011;1661;53.572;10.174;2022-09-09T04:59:36;29.10;;;23.07;;
3297;SDS011;1661;53.572;10.174;2022-09-09T05:02:05;26.70;;;21.37;;
3297;SDS011;1661;53.572;10.174;2022-09-09T05:04:32;29.67;;;23.07;;
3297;SDS011;1661;53.572;10.174;2022-09-09T05:06:59;29.53;;;23.00;;
3297;SDS011;1661;53.572;10.174;2022-09-09T05:09:26;35.50;;;25.40;;
3297;SDS011;1661;53.572;10.174;2022-09-09T05:11:52;32.43;;;20.60;;
3297;SDS011;1661;53.572;10.174;2022-09-09T05:14:19;24.30;;;19.10;;
3297;SDS011;1661;53.572;10.174;2022-09-09T05:16:46;27.50;;;19.40;;
3297;SDS011;1661;53.572;10.174;2022-09-09T05:19:15;26.80;;;22.20;;
3297;SDS011;1661;53.572;10.174;2022-09-09T05:21:44;16.63;;;15.00;;
3297;SDS011;1661;53.572;10.174;2022-09-09T05:24:11;20.60;;;17.70;;
3297;SDS011;1661;53.572;10.174;2022-09-09T05:26:37;17.00;;;15.20;;
3297;SDS011;1661;53.572;10.174;2022-09-09T05:29:04;18.13;;;15.97;;
3297;SDS011;1661;53.572;10.174;2022-09-09T05:31:31;19.03;;;17.10;;
3297;SDS011;1661;53.572;10.174;2022-09-09T05:33:58;18.00;;;14.23;;
3297;SDS011;1661;53.572;10.174;2022-09-09T05:36:26;21.70;;;17.40;;
3297;SDS011;1661;53.572;10.174;2022-09-09T05:38:52;20.77;;;18.57;;
3297;SDS011;1661;53.572;10.174;2022-09-09T05:41:19;18.37;;;15.97;;
3297;SDS011;1661;53.572;10.174;2022-09-09T05:43:48;22.70;;;17.07;;
3297;SDS011;1661;53.572;10.174;2022-09-09T05:46:15;26.53;;;18.47;;
3297;SDS011;1661;53.572;10.174;2022-09-09T05:48:44;27.43;;;18.57;;
3297;SDS011;1661;53.572;10.174;2022-09-09T05:51:12;21.37;;;18.23;;
3297;SDS011;1661;53.572;10.174;2022-09-09T05:53:43;20.20;;;18.10;;
3297;SDS011;1661;53.572;10.174;2022-09-09T05:56:13;19.40;;;16.77;;
3297;SDS011;1661;53.572;10.174;2022-09-09T05:58:42;21.50;;;17.47;;
3297;SDS011;1661;53.572;10.174;2022-09-09T06:01:10;17.70;;;15.93;;
3297;SDS011;1661;53.572;10.174;2022-09-09T06:03:39;16.20;;;14.50;;
3297;SDS011;1661;53.572;10.174;2022-09-09T06:06:07;17.93;;;14.77;;
3297;SDS011;1661;53.572;10.174;2022-09-09T06:08:37;16.53;;;14.70;;
3297;SDS011;1661;53.572;10.174;2022-09-09T06:11:07;18.10;;;16.30;;
3297;SDS011;1661;53.572;10.174;2022-09-09T06:13:35;16.23;;;14.17;;
3297;SDS011;1661;53.572;10.174;2022-09-09T06:16:04;14.83;;;13.20;;
3297;SDS011;1661;53.572;10.174;2022-09-09T06:18:32;16.50;;;13.63;;
3297;SDS011;1661;53.572;10.174;2022-09-09T06:20:59;16.57;;;12.47;;
3297;SDS011;1661;53.572;10.174;2022-09-09T06:23:29;13.70;;;11.17;;
3297;SDS011;1661;53.572;10.174;2022-09-09T06:26:03;15.47;;;12.30;;
3297;SDS011;1661;53.572;10.174;2022-09-09T06:28:32;14.47;;;12.17;;
3297;SDS011;1661;53.572;10.174;2022-09-09T06:30:59;14.80;;;11.30;;
3297;SDS011;1661;53.572;10.174;2022-09-09T06:33:25;11.57;;;10.40;;
3297;SDS011;1661;53.572;10.174;2022-09-09T06:35:53;16.90;;;11.40;;
3297;SDS011;1661;53.572;10.174;2022-09-09T06:38:22;11.90;;;10.67;;
3297;SDS011;1661;53.572;10.174;2022-09-09T06:40:50;14.23;;;11.10;;
3297;SDS011;1661;53.572;10.174;2022-09-09T06:43:19;9.87;;;9.07;;
3297;SDS011;1661;53.572;10.174;2022-09-09T06:45:53;10.67;;;9.33;;
3297;SDS011;1661;53.572;10.174;2022-09-09T06:48:21;12.43;;;9.70;;
3297;SDS011;1661;53.572;10.174;2022-09-09T06:50:47;14.23;;;10.27;;
3297;SDS011;1661;53.572;10.174;2022-09-09T06:53:16;10.57;;;9.17;;
3297;SDS011;1661;53.572;10.174;2022-09-09T06:55:44;11.73;;;10.63;;
3297;SDS011;1661;53.572;10.174;2022-09-09T06:58:11;10.63;;;7.90;;
3297;SDS011;1661;53.572;10.174;2022-09-09T07:00:38;15.17;;;8.50;;
3297;SDS011;1661;53.572;10.174;2022-09-09T07:03:06;11.00;;;9.80;;
3297;SDS011;1661;53.572;10.174;2022-09-09T07:05:33;11.73;;;8.40;;
3297;SDS011;1661;53.572;10.174;2022-09-09T07:07:59;14.20;;;8.70;;
3297;SDS011;1661;53.572;10.174;2022-09-09T07:10:27;14.40;;;8.73;;
3297;SDS011;1661;53.572;10.174;2022-09-09T07:12:54;10.80;;;8.73;;
3297;SDS011;1661;53.572;10.174;2022-09-09T07:15:20;12.70;;;8.40;;
3297;SDS011;1661;53.572;10.174;2022-09-09T07:17:47;13.70;;;7.67;;
3297;SDS011;1661;53.572;10.174;2022-09-09T07:20:16;8.33;;;7.53;;
3297;SDS011;1661;53.572;10.174;2022-09-09T07:22:42;6.53;;;5.80;;
3297;SDS011;1661;53.572;10.174;2022-09-09T07:25:09;9.60;;;6.53;;
3297;SDS011;1661;53.572;10.174;2022-09-09T07:27:36;10.23;;;7.60;;
3297;SDS011;1661;53.572;10.174;2022-09-09T07:30:03;8.80;;;7.10;;
3297;SDS011;1661;53.572;10.174;2022-09-09T07:32:30;19.53;;;6.70;;
3297;SDS011;1661;53.572;10.174;2022-09-09T07:34:57;10.43;;;7.43;;
3297;SDS011;1661;53.572;10.174;2022-09-09T07:37:26;6.70;;;6.20;;
3297;SDS011;1661;53.572;10.174;2022-09-09T07:39:52;8.23;;;7.40;;
3297;SDS011;1661;53.572;10.174;2022-09-09T07:42:19;11.77;;;6.90;;
3297;SDS011;1661;53.572;10.174;2022-09-09T07:44:46;7.73;;;7.13;;
3297;SDS011;1661;53.572;10.174;2022-09-09T07:47:12;5.93;;;5.40;;
3297;SDS011;1661;53.572;10.174;2022-09-09T07:49:39;8.00;;;6.80;;
3297;SDS011;1661;53.572;10.174;2022-09-09T07:52:06;9.20;;;6.60;;
3297;SDS011;1661;53.572;10.174;2022-09-09T07:54:35;7.60;;;7.00;;
3297;SDS011;1661;53.572;10.174;2022-09-09T07:57:01;9.00;;;6.03;;
3297;SDS011;1661;53.572;10.174;2022-09-09T07:59:29;7.20;;;6.50;;
3297;SDS011;1661;53.572;10.174;2022-09-09T08:01:56;11.83;;;7.60;;
3297;SDS011;1661;53.572;10.174;2022-09-09T08:04:23;9.33;;;6.40;;
3297;SDS011;1661;53.572;10.174;2022-09-09T08:06:54;5.70;;;5.20;;
3297;SDS011;1661;53.572;10.174;2022-09-09T08:09:22;6.63;;;5.27;;
3297;SDS011;1661;53.572;10.174;2022-09-09T08:11:52;6.17;;;4.87;;
3297;SDS011;1661;53.572;10.174;2022-09-09T08:14:18;7.80;;;4.83;;
3297;SDS011;1661;53.572;10.174;2022-09-09T08:16:46;6.10;;;5.27;;
3297;SDS011;1661;53.572;10.174;2022-09-09T08:19:14;4.70;;;4.30;;
3297;SDS011;1661;53.572;10.174;2022-09-09T08:21:41;7.57;;;4.60;;
3297;SDS011;1661;53.572;10.174;2022-09-09T08:24:09;5.37;;;4.97;;
3297;SDS011;1661;53.572;10.174;2022-09-09T08:26:37;9.10;;;4.30;;
3297;SDS011;1661;53.572;10.174;2022-09-09T08:29:06;3.93;;;3.73;;
3297;SDS011;1661;53.572;10.174;2022-09-09T08:31:35;4.90;;;4.50;;
3297;SDS011;1661;53.572;10.174;2022-09-09T08:34:03;7.23;;;5.20;;
3297;SDS011;1661;53.572;10.174;2022-09-09T08:36:32;8.00;;;4.50;;
3297;SDS011;1661;53.572;10.174;2022-09-09T08:39:02;4.70;;;4.30;;
3297;SDS011;1661;53.572;10.174;2022-09-09T08:41:31;5.43;;;3.97;;
3297;SDS011;1661;53.572;10.174;2022-09-09T08:44:09;3.73;;;3.43;;
3297;SDS011;1661;53.572;10.174;2022-09-09T08:46:42;5.13;;;4.63;;
3297;SDS011;1661;53.572;10.174;2022-09-09T08:49:20;3.50;;;3.13;;
3297;SDS011;1661;53.572;10.174;2022-09-09T08:52:04;6.50;;;4.00;;
3297;SDS011;1661;53.572;10.174;2022-09-09T08:54:40;5.03;;;3.20;;
3297;SDS011;1661;53.572;10.174;2022-09-09T08:57:08;4.97;;;4.47;;
3297;SDS011;1661;53.572;10.174;2022-09-09T08:59:42;6.97;;;4.07;;
3297;SDS011;1661;53.572;10.174;2022-09-09T09:02:12;5.13;;;3.13;;
3297;SDS011;1661;53.572;10.174;2022-09-09T09:04:50;4.70;;;3.90;;
3297;SDS011;1661;53.572;10.174;2022-09-09T09:07:28;4.03;;;2.43;;
3297;SDS011;1661;53.572;10.174;2022-09-09T09:10:08;4.17;;;3.17;;
3297;SDS011;1661;53.572;10.174;2022-09-09T09:12:43;6.97;;;2.97;;
3297;SDS011;1661;53.572;10.174;2022-09-09T09:15:16;3.30;;;2.50;;
3297;SDS011;1661;53.572;10.174;2022-09-09T09:17:46;3.63;;;3.13;;
3297;SDS011;1661;53.572;10.174;2022-09-09T09:20:14;9.40;;;3.80;;
3297;SDS011;1661;53.572;10.174;2022-09-09T09:22:45;7.30;;;3.30;;
3297;SDS011;1661;53.572;10.174;2022-09-09T09:25:16;4.43;;;3.70;;
3297;SDS011;1661;53.572;10.174;2022-09-09T09:27:47;3.37;;;2.73;;
3297;SDS011;1661;53.572;10.174;2022-09-09T09:30:23;3.77;;;2.33;;
3297;SDS011;1661;53.572;10.174;2022-09-09T09:32:52;2.87;;;2.43;;
3297;SDS011;1661;53.572;10.174;2022-09-09T09:35:22;6.97;;;3.33;;
3297;SDS011;1661;53.572;10.174;2022-09-09T09:37:49;4.87;;;2.40;;
3297;SDS011;1661;53.572;10.174;2022-09-09T09:40:16;3.97;;;2.57;;
3297;SDS011;1661;53.572;10.174;2022-09-09T09:42:48;2.50;;;2.30;;
3297;SDS011;1661;53.572;10.174;2022-09-09T09:45:19;4.00;;;2.10;;
3297;SDS011;1661;53.572;10.174;2022-09-09T09:47:58;2.40;;;1.97;;
3297;SDS011;1661;53.572;10.174;2022-09-09T09:50:27;2.70;;;2.50;;
3297;SDS011;1661;53.572;10.174;2022-09-09T09:52:54;5.93;;;2.60;;
3297;SDS011;1661;53.572;10.174;2022-09-09T09:55:22;5.23;;;2.40;;
3297;SDS011;1661;53.572;10.174;2022-09-09T09:57:49;6.13;;;1.97;;
3297;SDS011;1661;53.572;10.174;2022-09-09T10:00:17;1.87;;;1.70;;
3297;SDS011;1661;53.572;10.174;2022-09-09T10:02:47;4.87;;;2.50;;
3297;SDS011;1661;53.572;10.174;2022-09-09T10:05:17;2.30;;;1.77;;
3297;SDS011;1661;53.572;10.174;2022-09-09T10:07:46;2.67;;;1.80;;
3297;SDS011;1661;53.572;10.174;2022-09-09T10:10:27;5.47;;;2.90;;
3297;SDS011;1661;53.572;10.174;2022-09-09T10:13:07;3.80;;;1.80;;
3297;SDS011;1661;53.572;10.174;2022-09-09T10:15:41;5.73;;;1.87;;
3297;SDS011;1661;53.572;10.174;2022-09-09T10:18:22;5.80;;;2.23;;
3297;SDS011;1661;53.572;10.174;2022-09-09T10:21:02;2.80;;;2.50;;
3297;SDS011;1661;53.572;10.174;2022-09-09T10:23:42;4.63;;;2.20;;
3297;SDS011;1661;53.572;10.174;2022-09-09T10:26:19;2.60;;;2.40;;
3297;SDS011;1661;53.572;10.174;2022-09-09T10:29:04;2.90;;;1.83;;
3297;SDS011;1661;53.572;10.174;2022-09-09T10:31:43;4.83;;;1.93;;
3297;SDS011;1661;53.572;10.174;2022-09-09T10:34:33;5.67;;;2.17;;
3297;SDS011;1661;53.572;10.174;2022-09-09T10:37:15;4.10;;;2.03;;
3297;SDS011;1661;53.572;10.174;2022-09-09T10:39:48;3.93;;;1.93;;
3297;SDS011;1661;53.572;10.174;2022-09-09T10:42:23;4.23;;;1.93;;
3297;SDS011;1661;53.572;10.174;2022-09-09T10:44:59;6.03;;;2.10;;
3297;SDS011;1661;53.572;10.174;2022-09-09T10:47:45;3.03;;;1.90;;
3297;SDS011;1661;53.572;10.174;2022-09-09T10:53:23;4.00;;;1.87;;
3297;SDS011;1661;53.572;10.174;2022-09-09T10:55:59;4.63;;;1.70;;
3297;SDS011;1661;53.572;10.174;2022-09-09T10:58:32;2.17;;;1.57;;
3297;SDS011;1661;53.572;10.174;2022-09-09T11:01:06;5.17;;;1.97;;
3297;SDS011;1661;53.572;10.174;2022-09-09T11:03:39;3.43;;;2.17;;
3297;SDS011;1661;53.572;10.174;2022-09-09T11:06:12;3.20;;;1.67;;
3297;SDS011;1661;53.572;10.174;2022-09-09T11:08:42;4.73;;;2.10;;
3297;SDS011;1661;53.572;10.174;2022-09-09T11:11:10;2.80;;;2.13;;
3297;SDS011;1661;53.572;10.174;2022-09-09T11:13:44;4.80;;;1.93;;
3297;SDS011;1661;53.572;10.174;2022-09-09T11:16:19;5.37;;;2.30;;
3297;SDS011;1661;53.572;10.174;2022-09-09T11:18:51;3.30;;;2.07;;
3297;SDS011;1661;53.572;10.174;2022-09-09T11:21:24;3.00;;;1.70;;
3297;SDS011;1661;53.572;10.174;2022-09-09T11:23:56;4.70;;;1.97;;
3297;SDS011;1661;53.572;10.174;2022-09-09T11:26:29;3.87;;;1.90;;
3297;SDS011;1661;53.572;10.174;2022-09-09T11:29:03;3.40;;;1.90;;
3297;SDS011;1661;53.572;10.174;2022-09-09T11:31:44;2.60;;;1.90;;
3297;SDS011;1661;53.572;10.174;2022-09-09T11:34:21;3.83;;;1.97;;
3297;SDS011;1661;53.572;10.174;2022-09-09T11:37:10;4.40;;;1.40;;
3297;SDS011;1661;53.572;10.174;2022-09-09T11:40:08;4.90;;;2.00;;
3297;SDS011;1661;53.572;10.174;2022-09-09T11:42:42;3.57;;;1.70;;
3297;SDS011;1661;53.572;10.174;2022-09-09T11:45:19;3.57;;;1.57;;
3297;SDS011;1661;53.572;10.174;2022-09-09T11:47:51;4.43;;;2.20;;
3297;SDS011;1661;53.572;10.174;2022-09-09T11:50:33;4.80;;;2.10;;
3297;SDS011;1661;53.572;10.174;2022-09-09T11:53:15;3.20;;;1.70;;
3297;SDS011;1661;53.572;10.174;2022-09-09T11:55:47;5.03;;;1.87;;
3297;SDS011;1661;53.572;10.174;2022-09-09T11:58:26;2.80;;;1.37;;
3297;SDS011;1661;53.572;10.174;2022-09-09T12:00:57;1.90;;;1.60;;
3297;SDS011;1661;53.572;10.174;2022-09-09T12:06:11;2.17;;;1.70;;
3297;SDS011;1661;53.572;10.174;2022-09-09T12:08:46;3.40;;;2.40;;
3297;SDS011;1661;53.572;10.174;2022-09-09T12:11:27;2.50;;;1.93;;
3297;SDS011;1661;53.572;10.174;2022-09-09T12:13:56;1.90;;;1.50;;
3297;SDS011;1661;53.572;10.174;2022-09-09T12:16:28;3.27;;;1.83;;
3297;SDS011;1661;53.572;10.174;2022-09-09T12:19:05;4.20;;;1.80;;
3297;SDS011;1661;53.572;10.174;2022-09-09T12:21:41;7.03;;;2.77;;
3297;SDS011;1661;53.572;10.174;2022-09-09T12:24:17;3.50;;;1.67;;
3297;SDS011;1661;53.572;10.174;2022-09-09T12:26:54;5.97;;;2.40;;
3297;SDS011;1661;53.572;10.174;2022-09-09T12:29:27;2.73;;;2.30;;
3297;SDS011;1661;53.572;10.174;2022-09-09T12:32:00;6.53;;;2.40;;
3297;SDS011;1661;53.572;10.174;2022-09-09T12:34:34;2.67;;;2.20;;
3297;SDS011;1661;53.572;10.174;2022-09-09T12:37:06;3.33;;;2.00;;
3297;SDS011;1661;53.572;10.174;2022-09-09T12:39:41;5.43;;;2.80;;
3297;SDS011;1661;53.572;10.174;2022-09-09T12:42:16;8.30;;;2.60;;
3297;SDS011;1661;53.572;10.174;2022-09-09T12:44:54;4.37;;;1.80;;
3297;SDS011;1661;53.572;10.174;2022-09-09T12:47:23;3.43;;;1.63;;
3297;SDS011;1661;53.572;10.174;2022-09-09T12:50:00;6.37;;;2.27;;
3297;SDS011;1661;53.572;10.174;2022-09-09T12:52:27;3.80;;;1.70;;
3297;SDS011;1661;53.572;10.174;2022-09-09T12:54:59;6.53;;;2.43;;
3297;SDS011;1661;53.572;10.174;2022-09-09T12:57:31;5.27;;;2.60;;
3297;SDS011;1661;53.572;10.174;2022-09-09T13:00:06;3.03;;;2.83;;
3297;SDS011;1661;53.572;10.174;2022-09-09T13:02:45;4.00;;;2.87;;
3297;SDS011;1661;53.572;10.174;2022-09-09T13:05:16;4.37;;;3.40;;
3297;SDS011;1661;53.572;10.174;2022-09-09T13:07:45;3.07;;;2.37;;
3297;SDS011;1661;53.572;10.174;2022-09-09T13:10:14;5.00;;;2.47;;
3297;SDS011;1661;53.572;10.174;2022-09-09T13:12:46;7.00;;;2.40;;
3297;SDS011;1661;53.572;10.174;2022-09-09T13:15:16;5.10;;;2.77;;
3297;SDS011;1661;53.572;10.174;2022-09-09T13:17:49;5.50;;;3.30;;
3297;SDS011;1661;53.572;10.174;2022-09-09T13:20:21;3.00;;;2.80;;
3297;SDS011;1661;53.572;10.174;2022-09-09T13:22:49;5.53;;;2.90;;
3297;SDS011;1661;53.572;10.174;2022-09-09T13:25:20;6.40;;;2.97;;
3297;SDS011;1661;53.572;10.174;2022-09-09T13:27:57;3.73;;;3.20;;
3297;SDS011;1661;53.572;10.174;2022-09-09T13:30:26;6.50;;;2.90;;
3297;SDS011;1661;53.572;10.174;2022-09-09T13:33:06;4.47;;;3.30;;
3297;SDS011;1661;53.572;10.174;2022-09-09T13:35:49;10.57;;;3.20;;
3297;SDS011;1661;53.572;10.174;2022-09-09T13:38:20;7.97;;;3.43;;
3297;SDS011;1661;53.572;10.174;2022-09-09T13:40:55;3.47;;;2.90;;
3297;SDS011;1661;53.572;10.174;2022-09-09T13:43:24;4.30;;;2.50;;
3297;SDS011;1661;53.572;10.174;2022-09-09T13:45:53;5.93;;;3.23;;
3297;SDS011;1661;53.572;10.174;2022-09-09T13:48:23;8.77;;;2.80;;
3297;SDS011;1661;53.572;10.174;2022-09-09T13:50:54;12.50;;;4.10;;
3297;SDS011;1661;53.572;10.174;2022-09-09T13:53:22;5.80;;;2.80;;
3297;SDS011;1661;53.572;10.174;2022-09-09T13:55:49;7.87;;;3.27;;
3297;SDS011;1661;53.572;10.174;2022-09-09T13:58:18;4.33;;;2.77;;
3297;SDS011;1661;53.572;10.174;2022-09-09T14:00:47;3.27;;;2.40;;
3297;SDS011;1661;53.572;10.174;2022-09-09T14:03:14;5.53;;;2.37;;
3297;SDS011;1661;53.572;10.174;2022-09-09T14:05:41;4.57;;;2.60;;
3297;SDS011;1661;53.572;10.174;2022-09-09T14:08:10;2.90;;;2.17;;
3297;SDS011;1661;53.572;10.174;2022-09-09T14:10:44;3.13;;;2.73;;
3297;SDS011;1661;53.572;10.174;2022-09-09T14:13:11;4.17;;;2.60;;
3297;SDS011;1661;53.572;10.174;2022-09-09T14:15:39;2.50;;;2.30;;
3297;SDS011;1661;53.572;10.174;2022-09-09T14:18:05;8.13;;;2.57;;
3297;SDS011;1661;53.572;10.174;2022-09-09T14:20:35;10.17;;;3.00;;
3297;SDS011;1661;53.572;10.174;2022-09-09T14:23:02;2.30;;;2.00;;
3297;SDS011;1661;53.572;10.174;2022-09-09T14:25:28;3.80;;;2.73;;
3297;SDS011;1661;53.572;10.174;2022-09-09T14:27:56;4.47;;;3.10;;
3297;SDS011;1661;53.572;10.174;2022-09-09T14:30:22;6.93;;;2.47;;
3297;SDS011;1661;53.572;10.174;2022-09-09T14:32:50;5.63;;;3.00;;
3297;SDS011;1661;53.572;10.174;2022-09-09T14:35:17;4.17;;;2.30;;
3297;SDS011;1661;53.572;10.174;2022-09-09T14:37:44;3.90;;;2.37;;
3297;SDS011;1661;53.572;10.174;2022-09-09T14:40:11;7.10;;;3.30;;
3297;SDS011;1661;53.572;10.174;2022-09-09T14:42:39;4.17;;;2.37;;
3297;SDS011;1661;53.572;10.174;2022-09-09T14:45:06;4.17;;;2.53;;
3297;SDS011;1661;53.572;10.174;2022-09-09T14:47:34;8.87;;;2.60;;
3297;SDS011;1661;53.572;10.174;2022-09-09T14:50:02;7.17;;;3.07;;
3297;SDS011;1661;53.572;10.174;2022-09-09T14:52:30;7.67;;;3.83;;
3297;SDS011;1661;53.572;10.174;2022-09-09T14:54:57;5.20;;;3.83;;
3297;SDS011;1661;53.572;10.174;2022-09-09T14:57:23;5.43;;;3.33;;
3297;SDS011;1661;53.572;10.174;2022-09-09T14:59:50;2.87;;;2.37;;
3297;SDS011;1661;53.572;10.174;2022-09-09T15:02:17;7.30;;;3.30;;
3297;SDS011;1661;53.572;10.174;2022-09-09T15:04:43;6.27;;;3.60;;
3297;SDS011;1661;53.572;10.174;2022-09-09T15:07:12;3.87;;;2.80;;
3297;SDS011;1661;53.572;10.174;2022-09-09T15:09:38;6.07;;;2.90;;
3297;SDS011;1661;53.572;10.174;2022-09-09T15:12:05;2.73;;;2.13;;
3297;SDS011;1661;53.572;10.174;2022-09-09T15:14:32;4.40;;;2.40;;